Ash Springs, Nevada
Current Conditions -  °F | °C
As of 7:15 PM on Tuesday 25 Nov 2014 (Local Time) from KSGU Reporting Station
Clear Clear  
Wind Chill: 43°   Ceiling: Unl
Heat Index: 43°   Visibility: 10mi
Dew Point:   Wind: 0mph
Humidity: 25%   Direction: NA
Pressure: 30.41"   Gusts: NA
Location:  37.6°N, 114.8°W
Report Text: KSGU 260315Z AUTO 00000KT 10SM CLR 06/M13 A3041 RMK AO1
Loading
Personal Weather Stations






























Interactive Weather Map New forecast layout! Learn more

10-Day Weather Forecast

Advertisements
Track Severe Weather on mobile